Natalie — WDF2101 — position and weather

sailwx.info

Track history (hours):
 
Tides and Currents Weather Stations Pressure Air Temp Water Temp Dewpoint Dewpoint Depression Visibility Wind Speed Wind Dir Waves Ship Positions

Natalie

Owner: EINSELEN, CHRISTIAN, LONG BEACH TOWNSHIP, NJ. More information available from US FCC via Universal Licensing System and Coast Guard Vessel Documentation Center.

Last reported at 2018-Jun-21 17:02 UTC. Time now 2018-Jun-21 18:10 UTC.
Position N 39°46' W 074°07'.

Length 14 m.

Type: Fishing. MMSI: 367424880.

Date/timePositionNaut miles runAvg speedWind from/ knotsBaromVisibWave heightAir tempDewpointWater temp
2018-Jun-21 17:02N 39°46' W 074°07'0 0.0
2018-Jun-21 16:32N 39°46' W 074°07'0 0.0
2018-Jun-21 16:26N 39°46' W 074°07'0 0.0
2018-Jun-21 15:56N 39°46' W 074°07'0 0.0
2018-Jun-21 15:29N 39°46' W 074°07'0 0.1
2018-Jun-21 14:51N 39°46' W 074°07'2 4.7
2018-Jun-21 14:29N 39°47' W 074°05'6 0.8
2018-Jun-21 07:01N 39°53' W 074°03'1 4.8
2018-Jun-21 06:53N 39°54' W 074°04'3 0.8
2018-Jun-21 03:14N 39°50' W 074°03'1 5.2
2018-Jun-21 02:59N 39°52' W 074°03'2 3.6
2018-Jun-21 02:30N 39°53' W 074°04'1 2.7
2018-Jun-21 02:00N 39°52' W 074°04'4 6.9
2018-Jun-21 01:24N 39°48' W 074°05'3 6.4
2018-Jun-21 01:00N 39°46' W 074°07'0 0.1
2018-Jun-20 23:58N 39°46' W 074°07'0 0.0
2018-Jun-20 22:40N 39°46' W 074°07'0 0.0
2018-Jun-20 22:16N 39°46' W 074°07'0 0.0
2018-Jun-20 21:52N 39°46' W 074°07'0 0.0
2018-Jun-20 21:22N 39°46' W 074°07'0 0.0
2018-Jun-20 20:52N 39°46' W 074°07'0 0.0
2018-Jun-20 19:28N 39°46' W 074°07'0 0.1
2018-Jun-20 18:49N 39°46' W 074°07'0 0.1
2018-Jun-20 18:15N 39°46' W 074°07'0 0.0
2018-Jun-20 17:57N 39°46' W 074°07'0 0.0
2018-Jun-20 17:27N 39°46' W 074°07'0 0.0
2018-Jun-20 16:33N 39°46' W 074°07'0 0.0
2018-Jun-20 16:15N 39°46' W 074°07'0 0.1
2018-Jun-20 15:59N 39°46' W 074°07'0 0.0
2018-Jun-20 14:41N 39°46' W 074°07'1 3.9
2018-Jun-20 14:30N 39°46' W 074°06'4 7.1
2018-Jun-20 14:00N 39°49' W 074°05'4 8.3
2018-Jun-20 13:28N 39°54' W 074°04'0 0.3
2018-Jun-20 12:30N 39°54' W 074°04'0 0.4
2018-Jun-20 11:18N 39°54' W 074°04'1 1.6
2018-Jun-20 10:56N 39°54' W 074°04'0 0.1
2018-Jun-20 09:51N 39°54' W 074°04'8 0.8
2018-Jun-19 23:50N 39°46' W 074°07'0 0.0
2018-Jun-19 23:28N 39°46' W 074°07'0 0.1
2018-Jun-19 22:57N 39°46' W 074°07'0 0.0
2018-Jun-19 22:15N 39°46' W 074°07'0 0.0
2018-Jun-19 21:57N 39°46' W 074°07'0 0.0
2018-Jun-19 21:27N 39°46' W 074°07'0 0.0
2018-Jun-19 20:57N 39°46' W 074°07'0 0.0
2018-Jun-19 20:27N 39°46' W 074°07'0 0.0
2018-Jun-19 19:57N 39°46' W 074°07'0 0.0
2018-Jun-19 19:09N 39°46' W 074°07'0 0.0
2018-Jun-19 18:51N 39°46' W 074°07'0 0.0
2018-Jun-19 18:27N 39°46' W 074°07'0 0.0
2018-Jun-19 17:57N 39°46' W 074°07'0 0.0
2018-Jun-19 17:27N 39°46' W 074°07'0 0.0
2018-Jun-19 16:51N 39°46' W 074°07'0 0.0
2018-Jun-19 16:09N 39°46' W 074°07'0 0.0
2018-Jun-19 15:39N 39°46' W 074°07'0 0.0
2018-Jun-19 15:27N 39°46' W 074°07'0 0.0
2018-Jun-19 14:57N 39°46' W 074°07'0 0.0
2018-Jun-19 14:21N 39°46' W 074°07'0 0.0
2018-Jun-19 13:57N 39°46' W 074°07'0 0.0
2018-Jun-19 13:27N 39°46' W 074°07'0 0.0
2018-Jun-19 12:51N 39°46' W 074°07'0 0.0
2018-Jun-19 12:27N 39°46' W 074°07'0 0.0
2018-Jun-19 11:12N 39°46' W 074°07'0 0.0
2018-Jun-19 10:18N 39°46' W 074°07'0 0.0
2018-Jun-19 08:15N 39°46' W 074°07'0 0.0
2018-Jun-19 07:39N 39°46' W 074°07'0 0.0
2018-Jun-19 07:09N 39°46' W 074°07'0 0.0
2018-Jun-19 06:45N 39°46' W 074°07'0 0.0
2018-Jun-19 06:09N 39°46' W 074°07'0 0.0
2018-Jun-19 05:57N 39°46' W 074°07'0 0.0
2018-Jun-19 05:15N 39°46' W 074°07'0 0.0
2018-Jun-19 02:39N 39°46' W 074°07'0 0.0
2018-Jun-19 02:15N 39°46' W 074°07'0 0.0
2018-Jun-19 01:54N 39°46' W 074°07'0 0.0
2018-Jun-19 00:54N 39°46' W 074°07'0 0.0
2018-Jun-19 00:30N 39°46' W 074°07'0 0.0
2018-Jun-18 23:54N 39°46' W 074°07'0 0.0
2018-Jun-18 23:18N 39°46' W 074°07'0 0.0
2018-Jun-18 22:54N 39°46' W 074°07'0 0.0
2018-Jun-18 22:18N 39°46' W 074°07'0 0.0
2018-Jun-18 20:18N 39°46' W 074°07'0 0.0
2018-Jun-18 20:00N 39°46' W 074°07'0 0.0
2018-Jun-18 19:26N 39°46' W 074°07'0 0.0
2018-Jun-18 18:32N 39°46' W 074°07'0 0.0
2018-Jun-18 18:27N 39°46' W 074°07'2 4.5
2018-Jun-18 17:57N 39°47' W 074°05'7 6.7
2018-Jun-18 16:54N 39°54' W 074°03'0 0.1
2018-Jun-18 12:09N 39°55' W 074°03'0 0.2
2018-Jun-18 12:00N 39°55' W 074°03'0 0.2
2018-Jun-18 11:24N 39°55' W 074°04'0 0.2
2018-Jun-18 11:00N 39°55' W 074°04'0 0.4
2018-Jun-18 10:30N 39°55' W 074°04'0 0.2
2018-Jun-18 09:54N 39°55' W 074°04'0 0.3
2018-Jun-18 09:30N 39°55' W 074°04'1 1.7
2018-Jun-18 08:56N 39°54' W 074°03'0 0.9
2018-Jun-18 08:26N 39°55' W 074°04'0 0.4
2018-Jun-18 07:58N 39°54' W 074°04'2 4.0
2018-Jun-18 07:30N 39°54' W 074°01'0 0.9
2018-Jun-18 07:00N 39°53' W 074°01'1 0.7
2018-Jun-18 06:15N 39°53' W 074°02'0 0.7
2018-Jun-18 06:00N 39°53' W 074°02'0 0.7
2018-Jun-18 05:30N 39°52' W 074°02'1 0.7
2018-Jun-18 04:37N 39°52' W 074°03'1 0.7
2018-Jun-18 03:11N 39°52' W 074°04'2 8.6
2018-Jun-18 02:59N 39°50' W 074°04'4 8.5
2018-Jun-18 02:30N 39°46' W 074°05'1 0.6
2018-Jun-18 00:28N 39°46' W 074°07'0 0.0
2018-Jun-17 23:52N 39°46' W 074°07'0 0.0
2018-Jun-17 22:52N 39°46' W 074°07'0 0.0
2018-Jun-17 22:28N 39°46' W 074°07'0 0.0
2018-Jun-17 21:52N 39°46' W 074°07'0 0.0
2018-Jun-17 21:28N 39°46' W 074°07'0 0.0
2018-Jun-17 20:16N 39°46' W 074°07'0 0.0
2018-Jun-17 19:58N 39°46' W 074°07'0 0.0
2018-Jun-17 19:28N 39°46' W 074°07'0 0.0
2018-Jun-17 17:52N 39°46' W 074°07'0 0.0
2018-Jun-17 17:28N 39°46' W 074°07'0 0.0
2018-Jun-17 16:58N 39°46' W 074°07'0 0.0
2018-Jun-17 16:22N 39°46' W 074°07'0 0.0
2018-Jun-17 15:16N 39°46' W 074°07'0 0.0
2018-Jun-17 14:40N 39°46' W 074°07'0 0.0
2018-Jun-17 14:28N 39°46' W 074°07'0 0.0
2018-Jun-17 12:46N 39°46' W 074°07'0 0.0
2018-Jun-17 12:29N 39°46' W 074°07'0 0.0
2018-Jun-17 11:53N 39°46' W 074°07'0 0.0
2018-Jun-17 11:28N 39°46' W 074°07'0 0.0
2018-Jun-17 10:52N 39°46' W 074°07'0 0.0
2018-Jun-17 10:22N 39°46' W 074°07'0 0.0
2018-Jun-17 09:46N 39°46' W 074°07'0 0.1
2018-Jun-17 09:30N 39°46' W 074°07'0 0.9
2018-Jun-17 09:00N 39°46' W 074°06'3 5.8
2018-Jun-17 08:30N 39°47' W 074°03'3 5.3
2018-Jun-17 07:59N 39°49' W 073°60'1 1.1
2018-Jun-17 07:30N 39°49' W 074°00'0 0.4
2018-Jun-17 06:52N 39°49' W 074°00'2 4.3
2018-Jun-17 06:20N 39°50' W 074°03'2 4.7
2018-Jun-17 05:56N 39°52' W 074°04'3 0.4
2018-Jun-16 23:47N 39°54' W 074°01'1 4.3
2018-Jun-16 23:30N 39°54' W 073°60'1 1.8
2018-Jun-16 22:59N 39°54' W 073°59'2 3.3
2018-Jun-16 22:27N 39°54' W 074°01'3 7.0
2018-Jun-16 21:59N 39°51' W 074°03'5 9.0
2018-Jun-16 21:27N 39°46' W 074°05'2 2.6
2018-Jun-16 20:52N 39°46' W 074°07'0 0.0
2018-Jun-16 06:33N 39°46' W 074°07'0 0.0
2018-Jun-16 06:27N 39°46' W 074°07'1 1.7
2018-Jun-16 05:57N 39°46' W 074°06'4 7.6
2018-Jun-16 05:29N 39°49' W 074°04'5 1.7
2018-Jun-16 02:42N 39°54' W 074°04'0 1.0
2018-Jun-16 02:29N 39°54' W 074°04'0 0.0
2018-Jun-16 01:23N 39°54' W 074°04'0 0.1
2018-Jun-15 19:29N 39°53' W 074°04'4 8.5
2018-Jun-15 19:00N 39°49' W 074°05'4 2.4
2018-Jun-15 17:25N 39°46' W 074°07'0 0.0
2018-Jun-15 16:24N 39°46' W 074°07'0 0.0
2018-Jun-15 15:48N 39°46' W 074°07'0 0.0
2018-Jun-15 15:24N 39°46' W 074°07'0 0.0
2018-Jun-15 15:00N 39°46' W 074°07'0 0.0
2018-Jun-15 14:30N 39°46' W 074°07'0 0.0
2018-Jun-15 14:00N 39°46' W 074°07'0 0.0
2018-Jun-15 13:30N 39°46' W 074°07'0 0.0
2018-Jun-15 12:54N 39°46' W 074°07'0 0.0
2018-Jun-15 11:42N 39°46' W 074°07'0 0.0
2018-Jun-15 11:24N 39°46' W 074°07'0 0.0
2018-Jun-15 07:54N 39°46' W 074°07'0 0.0
2018-Jun-15 07:30N 39°46' W 074°07'0 0.0
2018-Jun-15 06:00N 39°46' W 074°07'0 0.0
2018-Jun-15 05:30N 39°46' W 074°07'0 0.0
2018-Jun-15 05:00N 39°46' W 074°07'0 0.0
2018-Jun-15 01:18N 39°46' W 074°07'0 0.0
2018-Jun-14 23:48N 39°46' W 074°07'0 0.0
2018-Jun-14 23:30N 39°46' W 074°07'0 0.0
2018-Jun-14 21:30N 39°46' W 074°07'0 0.0
2018-Jun-14 20:19N 39°46' W 074°07'0 0.0
2018-Jun-14 19:49N 39°46' W 074°07'0 0.0
2018-Jun-14 19:19N 39°46' W 074°07'1 2.8
2018-Jun-14 18:57N 39°46' W 074°05'4 7.7
2018-Jun-14 18:25N 39°50' W 074°05'0 0.0
2018-Jun-14 06:51N 39°50' W 074°04'3 8.6
2018-Jun-14 06:29N 39°47' W 074°05'2 3.3
2018-Jun-14 05:53N 39°46' W 074°07'0 0.0
2018-Jun-14 02:07N 39°46' W 074°07'0 0.0
2018-Jun-14 01:49N 39°46' W 074°07'0 0.0
2018-Jun-14 01:01N 39°46' W 074°07'0 0.0
2018-Jun-14 00:52N 39°46' W 074°07'0 0.0
2018-Jun-14 00:25N 39°46' W 074°07'0 0.0
2018-Jun-13 22:55N 39°46' W 074°07'0 0.0
2018-Jun-13 18:25N 39°46' W 074°07'0 0.0
2018-Jun-13 15:37N 39°46' W 074°07'0 0.0
2018-Jun-13 14:49N 39°46' W 074°07'0 0.0
2018-Jun-13 13:31N 39°46' W 074°07'0 0.0
2018-Jun-13 10:43N 39°46' W 074°07'0 0.1
2018-Jun-13 10:15N 39°46' W 074°07'0 0.0
2018-Jun-13 10:00N 39°46' W 074°07'0 0.0
2018-Jun-13 09:11N 39°46' W 074°07'1 5.3
2018-Jun-13 08:54N 39°46' W 074°05'3 7.8
2018-Jun-13 08:29N 39°42' W 074°05'5 8.5
2018-Jun-13 07:56N 39°38' W 074°06'3 0.9
2018-Jun-13 04:22N 39°35' W 074°07'2 4.9
2018-Jun-13 04:00N 39°35' W 074°05'2 0.8
2018-Jun-13 01:36N 39°37' W 074°03'0 0.4
2018-Jun-13 01:10N 39°37' W 074°03'0 0.4
2018-Jun-13 00:55N 39°37' W 074°03'3 6.2
2018-Jun-13 00:24N 39°35' W 074°06'1 1.5
2018-Jun-13 00:00N 39°35' W 074°06'3 3.0
2018-Jun-12 23:07N 39°37' W 074°04'0 0.7
2018-Jun-12 22:55N 39°37' W 074°04'0 0.5
2018-Jun-12 22:16N 39°37' W 074°04'0 0.3
2018-Jun-12 21:59N 39°37' W 074°04'1 0.7
2018-Jun-12 20:48N 39°37' W 074°03'0 0.8
2018-Jun-12 20:30N 39°37' W 074°03'3 5.2
2018-Jun-12 19:59N 39°39' W 074°04'4 7.6
2018-Jun-12 19:24N 39°44' W 074°04'  
Track history (hours):
 
Tides and Currents Weather Stations Pressure Air Temp Water Temp Dewpoint Dewpoint Depression Visibility Wind Speed Wind Dir Waves Ship Positions

Natalie

Owner: EINSELEN, CHRISTIAN, LONG BEACH TOWNSHIP, NJ. More information available from US FCC via Universal Licensing System and Coast Guard Vessel Documentation Center.

Last reported at 2018-Jun-21 17:02 UTC. Time now 2018-Jun-21 18:10 UTC.
Position N 39°46' W 074°07'.

Length 14 m.

Type: Fishing. MMSI: 367424880.

Date/timePositionNaut miles runAvg speedWind from/ knotsBaromVisibWave heightAir tempDewpointWater temp
2018-Jun-21 17:02N 39°46' W 074°07'0 0.0
2018-Jun-21 16:32N 39°46' W 074°07'0 0.0
2018-Jun-21 16:26N 39°46' W 074°07'0 0.0
2018-Jun-21 15:56N 39°46' W 074°07'0 0.0
2018-Jun-21 15:29N 39°46' W 074°07'0 0.1
2018-Jun-21 14:51N 39°46' W 074°07'2 4.7
2018-Jun-21 14:29N 39°47' W 074°05'6 0.8
2018-Jun-21 07:01N 39°53' W 074°03'1 4.8
2018-Jun-21 06:53N 39°54' W 074°04'3 0.8
2018-Jun-21 03:14N 39°50' W 074°03'1 5.2
2018-Jun-21 02:59N 39°52' W 074°03'2 3.6
2018-Jun-21 02:30N 39°53' W 074°04'1 2.7
2018-Jun-21 02:00N 39°52' W 074°04'4 6.9
2018-Jun-21 01:24N 39°48' W 074°05'3 6.4
2018-Jun-21 01:00N 39°46' W 074°07'0 0.1
2018-Jun-20 23:58N 39°46' W 074°07'0 0.0
2018-Jun-20 22:40N 39°46' W 074°07'0 0.0
2018-Jun-20 22:16N 39°46' W 074°07'0 0.0
2018-Jun-20 21:52N 39°46' W 074°07'0 0.0
2018-Jun-20 21:22N 39°46' W 074°07'0 0.0
2018-Jun-20 20:52N 39°46' W 074°07'0 0.0
2018-Jun-20 19:28N 39°46' W 074°07'0 0.1
2018-Jun-20 18:49N 39°46' W 074°07'0 0.1
2018-Jun-20 18:15N 39°46' W 074°07'0 0.0
2018-Jun-20 17:57N 39°46' W 074°07'0 0.0
2018-Jun-20 17:27N 39°46' W 074°07'0 0.0
2018-Jun-20 16:33N 39°46' W 074°07'0 0.0
2018-Jun-20 16:15N 39°46' W 074°07'0 0.1
2018-Jun-20 15:59N 39°46' W 074°07'0 0.0
2018-Jun-20 14:41N 39°46' W 074°07'1 3.9
2018-Jun-20 14:30N 39°46' W 074°06'4 7.1
2018-Jun-20 14:00N 39°49' W 074°05'4 8.3
2018-Jun-20 13:28N 39°54' W 074°04'0 0.3
2018-Jun-20 12:30N 39°54' W 074°04'0 0.4
2018-Jun-20 11:18N 39°54' W 074°04'1 1.6
2018-Jun-20 10:56N 39°54' W 074°04'0 0.1
2018-Jun-20 09:51N 39°54' W 074°04'8 0.8
2018-Jun-19 23:50N 39°46' W 074°07'0 0.0
2018-Jun-19 23:28N 39°46' W 074°07'0 0.1
2018-Jun-19 22:57N 39°46' W 074°07'0 0.0
2018-Jun-19 22:15N 39°46' W 074°07'0 0.0
2018-Jun-19 21:57N 39°46' W 074°07'0 0.0
2018-Jun-19 21:27N 39°46' W 074°07'0 0.0
2018-Jun-19 20:57N 39°46' W 074°07'0 0.0
2018-Jun-19 20:27N 39°46' W 074°07'0 0.0
2018-Jun-19 19:57N 39°46' W 074°07'0 0.0
2018-Jun-19 19:09N 39°46' W 074°07'0 0.0
2018-Jun-19 18:51N 39°46' W 074°07'0 0.0
2018-Jun-19 18:27N 39°46' W 074°07'0 0.0
2018-Jun-19 17:57N 39°46' W 074°07'0 0.0
2018-Jun-19 17:27N 39°46' W 074°07'0 0.0
2018-Jun-19 16:51N 39°46' W 074°07'0 0.0
2018-Jun-19 16:09N 39°46' W 074°07'0 0.0
2018-Jun-19 15:39N 39°46' W 074°07'0 0.0
2018-Jun-19 15:27N 39°46' W 074°07'0 0.0
2018-Jun-19 14:57N 39°46' W 074°07'0 0.0
2018-Jun-19 14:21N 39°46' W 074°07'0 0.0
2018-Jun-19 13:57N 39°46' W 074°07'0 0.0
2018-Jun-19 13:27N 39°46' W 074°07'0 0.0
2018-Jun-19 12:51N 39°46' W 074°07'0 0.0
2018-Jun-19 12:27N 39°46' W 074°07'0 0.0
2018-Jun-19 11:12N 39°46' W 074°07'0 0.0
2018-Jun-19 10:18N 39°46' W 074°07'0 0.0
2018-Jun-19 08:15N 39°46' W 074°07'0 0.0
2018-Jun-19 07:39N 39°46' W 074°07'0 0.0
2018-Jun-19 07:09N 39°46' W 074°07'0 0.0
2018-Jun-19 06:45N 39°46' W 074°07'0 0.0
2018-Jun-19 06:09N 39°46' W 074°07'0 0.0
2018-Jun-19 05:57N 39°46' W 074°07'0 0.0
2018-Jun-19 05:15N 39°46' W 074°07'0 0.0
2018-Jun-19 02:39N 39°46' W 074°07'0 0.0
2018-Jun-19 02:15N 39°46' W 074°07'0 0.0
2018-Jun-19 01:54N 39°46' W 074°07'0 0.0
2018-Jun-19 00:54N 39°46' W 074°07'0 0.0
2018-Jun-19 00:30N 39°46' W 074°07'0 0.0
2018-Jun-18 23:54N 39°46' W 074°07'0 0.0
2018-Jun-18 23:18N 39°46' W 074°07'0 0.0
2018-Jun-18 22:54N 39°46' W 074°07'0 0.0
2018-Jun-18 22:18N 39°46' W 074°07'0 0.0
2018-Jun-18 20:18N 39°46' W 074°07'0 0.0
2018-Jun-18 20:00N 39°46' W 074°07'0 0.0
2018-Jun-18 19:26N 39°46' W 074°07'0 0.0
2018-Jun-18 18:32N 39°46' W 074°07'0 0.0
2018-Jun-18 18:27N 39°46' W 074°07'2 4.5
2018-Jun-18 17:57N 39°47' W 074°05'7 6.7
2018-Jun-18 16:54N 39°54' W 074°03'0 0.1
2018-Jun-18 12:09N 39°55' W 074°03'0 0.2
2018-Jun-18 12:00N 39°55' W 074°03'0 0.2
2018-Jun-18 11:24N 39°55' W 074°04'0 0.2
2018-Jun-18 11:00N 39°55' W 074°04'0 0.4
2018-Jun-18 10:30N 39°55' W 074°04'0 0.2
2018-Jun-18 09:54N 39°55' W 074°04'0 0.3
2018-Jun-18 09:30N 39°55' W 074°04'1 1.7
2018-Jun-18 08:56N 39°54' W 074°03'0 0.9
2018-Jun-18 08:26N 39°55' W 074°04'0 0.4
2018-Jun-18 07:58N 39°54' W 074°04'2 4.0
2018-Jun-18 07:30N 39°54' W 074°01'0 0.9
2018-Jun-18 07:00N 39°53' W 074°01'1 0.7
2018-Jun-18 06:15N 39°53' W 074°02'0 0.7
2018-Jun-18 06:00N 39°53' W 074°02'0 0.7
2018-Jun-18 05:30N 39°52' W 074°02'1 0.7
2018-Jun-18 04:37N 39°52' W 074°03'1 0.7
2018-Jun-18 03:11N 39°52' W 074°04'2 8.6
2018-Jun-18 02:59N 39°50' W 074°04'4 8.5
2018-Jun-18 02:30N 39°46' W 074°05'1 0.6
2018-Jun-18 00:28N 39°46' W 074°07'0 0.0
2018-Jun-17 23:52N 39°46' W 074°07'0 0.0
2018-Jun-17 22:52N 39°46' W 074°07'0 0.0
2018-Jun-17 22:28N 39°46' W 074°07'0 0.0
2018-Jun-17 21:52N 39°46' W 074°07'0 0.0
2018-Jun-17 21:28N 39°46' W 074°07'0 0.0
2018-Jun-17 20:16N 39°46' W 074°07'0 0.0
2018-Jun-17 19:58N 39°46' W 074°07'0 0.0
2018-Jun-17 19:28N 39°46' W 074°07'0 0.0
2018-Jun-17 17:52N 39°46' W 074°07'0 0.0
2018-Jun-17 17:28N 39°46' W 074°07'0 0.0
2018-Jun-17 16:58N 39°46' W 074°07'0 0.0
2018-Jun-17 16:22N 39°46' W 074°07'0 0.0
2018-Jun-17 15:16N 39°46' W 074°07'0 0.0
2018-Jun-17 14:40N 39°46' W 074°07'0 0.0
2018-Jun-17 14:28N 39°46' W 074°07'0 0.0
2018-Jun-17 12:46N 39°46' W 074°07'0 0.0
2018-Jun-17 12:29N 39°46' W 074°07'0 0.0
2018-Jun-17 11:53N 39°46' W 074°07'0 0.0
2018-Jun-17 11:28N 39°46' W 074°07'0 0.0
2018-Jun-17 10:52N 39°46' W 074°07'0 0.0
2018-Jun-17 10:22N 39°46' W 074°07'0 0.0
2018-Jun-17 09:46N 39°46' W 074°07'0 0.1
2018-Jun-17 09:30N 39°46' W 074°07'0 0.9
2018-Jun-17 09:00N 39°46' W 074°06'3 5.8
2018-Jun-17 08:30N 39°47' W 074°03'3 5.3
2018-Jun-17 07:59N 39°49' W 073°60'1 1.1
2018-Jun-17 07:30N 39°49' W 074°00'0 0.4
2018-Jun-17 06:52N 39°49' W 074°00'2 4.3
2018-Jun-17 06:20N 39°50' W 074°03'2 4.7
2018-Jun-17 05:56N 39°52' W 074°04'3 0.4
2018-Jun-16 23:47N 39°54' W 074°01'1 4.3
2018-Jun-16 23:30N 39°54' W 073°60'1 1.8
2018-Jun-16 22:59N 39°54' W 073°59'2 3.3
2018-Jun-16 22:27N 39°54' W 074°01'3 7.0
2018-Jun-16 21:59N 39°51' W 074°03'5 9.0
2018-Jun-16 21:27N 39°46' W 074°05'2 2.6
2018-Jun-16 20:52N 39°46' W 074°07'0 0.0
2018-Jun-16 06:33N 39°46' W 074°07'0 0.0
2018-Jun-16 06:27N 39°46' W 074°07'1 1.7
2018-Jun-16 05:57N 39°46' W 074°06'4 7.6
2018-Jun-16 05:29N 39°49' W 074°04'5 1.7
2018-Jun-16 02:42N 39°54' W 074°04'0 1.0
2018-Jun-16 02:29N 39°54' W 074°04'0 0.0
2018-Jun-16 01:23N 39°54' W 074°04'0 0.1
2018-Jun-15 19:29N 39°53' W 074°04'4 8.5
2018-Jun-15 19:00N 39°49' W 074°05'4 2.4
2018-Jun-15 17:25N 39°46' W 074°07'0 0.0
2018-Jun-15 16:24N 39°46' W 074°07'0 0.0
2018-Jun-15 15:48N 39°46' W 074°07'0 0.0
2018-Jun-15 15:24N 39°46' W 074°07'0 0.0
2018-Jun-15 15:00N 39°46' W 074°07'0 0.0
2018-Jun-15 14:30N 39°46' W 074°07'0 0.0
2018-Jun-15 14:00N 39°46' W 074°07'0 0.0
2018-Jun-15 13:30N 39°46' W 074°07'0 0.0
2018-Jun-15 12:54N 39°46' W 074°07'0 0.0
2018-Jun-15 11:42N 39°46' W 074°07'0 0.0
2018-Jun-15 11:24N 39°46' W 074°07'0 0.0
2018-Jun-15 07:54N 39°46' W 074°07'0 0.0
2018-Jun-15 07:30N 39°46' W 074°07'0 0.0
2018-Jun-15 06:00N 39°46' W 074°07'0 0.0
2018-Jun-15 05:30N 39°46' W 074°07'0 0.0
2018-Jun-15 05:00N 39°46' W 074°07'0 0.0
2018-Jun-15 01:18N 39°46' W 074°07'0 0.0
2018-Jun-14 23:48N 39°46' W 074°07'0 0.0
2018-Jun-14 23:30N 39°46' W 074°07'0 0.0
2018-Jun-14 21:30N 39°46' W 074°07'0 0.0
2018-Jun-14 20:19N 39°46' W 074°07'0 0.0
2018-Jun-14 19:49N 39°46' W 074°07'0 0.0
2018-Jun-14 19:19N 39°46' W 074°07'1 2.8
2018-Jun-14 18:57N 39°46' W 074°05'4 7.7
2018-Jun-14 18:25N 39°50' W 074°05'0 0.0
2018-Jun-14 06:51N 39°50' W 074°04'3 8.6
2018-Jun-14 06:29N 39°47' W 074°05'2 3.3
2018-Jun-14 05:53N 39°46' W 074°07'0 0.0
2018-Jun-14 02:07N 39°46' W 074°07'0 0.0
2018-Jun-14 01:49N 39°46' W 074°07'0 0.0
2018-Jun-14 01:01N 39°46' W 074°07'0 0.0
2018-Jun-14 00:52N 39°46' W 074°07'0 0.0
2018-Jun-14 00:25N 39°46' W 074°07'0 0.0
2018-Jun-13 22:55N 39°46' W 074°07'0 0.0
2018-Jun-13 18:25N 39°46' W 074°07'0 0.0
2018-Jun-13 15:37N 39°46' W 074°07'0 0.0
2018-Jun-13 14:49N 39°46' W 074°07'0 0.0
2018-Jun-13 13:31N 39°46' W 074°07'0 0.0
2018-Jun-13 10:43N 39°46' W 074°07'0 0.1
2018-Jun-13 10:15N 39°46' W 074°07'0 0.0
2018-Jun-13 10:00N 39°46' W 074°07'0 0.0
2018-Jun-13 09:11N 39°46' W 074°07'1 5.3
2018-Jun-13 08:54N 39°46' W 074°05'3 7.8
2018-Jun-13 08:29N 39°42' W 074°05'5 8.5
2018-Jun-13 07:56N 39°38' W 074°06'3 0.9
2018-Jun-13 04:22N 39°35' W 074°07'2 4.9
2018-Jun-13 04:00N 39°35' W 074°05'2 0.8
2018-Jun-13 01:36N 39°37' W 074°03'0 0.4
2018-Jun-13 01:10N 39°37' W 074°03'0 0.4
2018-Jun-13 00:55N 39°37' W 074°03'3 6.2
2018-Jun-13 00:24N 39°35' W 074°06'1 1.5
2018-Jun-13 00:00N 39°35' W 074°06'3 3.0
2018-Jun-12 23:07N 39°37' W 074°04'0 0.7
2018-Jun-12 22:55N 39°37' W 074°04'0 0.5
2018-Jun-12 22:16N 39°37' W 074°04'0 0.3
2018-Jun-12 21:59N 39°37' W 074°04'1 0.7
2018-Jun-12 20:48N 39°37' W 074°03'0 0.8
2018-Jun-12 20:30N 39°37' W 074°03'3 5.2
2018-Jun-12 19:59N 39°39' W 074°04'4 7.6
2018-Jun-12 19:24N 39°44' W 074°04'  

Dump ship's entire track history